Stations météo

Publicité
Southampton oceanography centre, Grande-Bretagne (99079): Température de l'air & dewpoint: 21.10.2020 18:00:00 - 27.10.2020 18:00:00 (GMT)Southampton oceanography centre, Grande-Bretagne (99079): Vitesse du vent & gusts: 21.10.2020 18:00:00 - 27.10.2020 18:00:00 (GMT)Southampton oceanography centre, Grande-Bretagne (99079): Direction du vent: 21.10.2020 18:00:00 - 27.10.2020 18:00:00 (GMT)Southampton oceanography centre, Grande-Bretagne (99079): Quantités de précipitations: 21.10.2020 18:00:00 - 27.10.2020 18:00:00 (GMT)
Date & Time tt [°C] td [°C] ff [km/h] ff [knt] fx [km/h] fx [knt] dd rr [mm]
27.10.2020 18:00:00 - - - - - - - -
27.10.2020 17:00:00 12,0 10,1 21 11 - - SW 0,0
27.10.2020 16:00:00 13,1 10,5 24 13 50 27 W 0,0
27.10.2020 15:00:00 14,9 13,1 31 17 - - SW 0,0
27.10.2020 14:00:00 14,6 13,8 29 16 50 27 SW 0,0
27.10.2020 13:00:00 13,9 13,4 39 21 63 34 SSW 0,0
27.10.2020 12:00:00 12,5 12,0 35 19 57 31 S 0,0
27.10.2020 11:00:00 11,9 11,3 29 16 48 26 S 0,0
27.10.2020 10:00:00 11,6 11,0 28 15 50 27 S 0,0
27.10.2020 09:00:00 11,2 10,5 24 13 - - S 0,0
27.10.2020 08:00:00 10,4 9,3 16 9 - - S 0,0
27.10.2020 07:00:00 9,9 8,8 11 6 - - SSW 0,0
27.10.2020 06:00:00 10,4 8,0 24 13 - - SW 0,0
27.10.2020 05:00:00 10,0 7,7 8 4 - - S 0,0
27.10.2020 04:00:00 9,3 7,5 9 5 - - SSW 0,0
27.10.2020 03:00:00 9,1 7,6 16 9 - - SW 0,0
27.10.2020 02:00:00 8,1 6,8 8 4 - - WSW 0,0
27.10.2020 01:00:00 8,1 6,8 11 6 - - W 0,0
27.10.2020 00:00:00 8,1 6,9 13 7 - - WSW 0,0
26.10.2020 23:00:00 8,4 6,9 16 9 - - WSW 0,0
26.10.2020 22:00:00 8,5 6,6 8 4 - - WSW 0,0
26.10.2020 21:00:00 8,6 6,5 11 6 - - WSW 0,0
26.10.2020 20:00:00 9,6 6,9 16 9 - - WSW 0,0
26.10.2020 19:00:00 10,4 7,0 16 9 - - WSW 0,0
26.10.2020 18:00:00 11,2 6,9 21 11 - - W 0,0
26.10.2020 17:00:00 11,9 7,2 18 10 - - W 0,0
26.10.2020 16:00:00 13,4 7,0 18 10 - - W 0,0
26.10.2020 15:00:00 13,9 7,7 28 15 - - W 0,0
26.10.2020 14:00:00 13,8 6,3 21 11 46 25 WNW 0,0
26.10.2020 13:00:00 13,6 7,9 24 13 - - W 0,0
26.10.2020 12:00:00 13,0 8,4 24 13 48 26 W 0,0
26.10.2020 11:00:00 13,2 9,0 21 11 - - W 0,0
26.10.2020 10:00:00 13,0 8,9 26 14 - - WSW 0,0
26.10.2020 09:00:00 11,8 8,7 21 11 - - WSW 0,0
26.10.2020 08:00:00 9,3 7,6 8 4 - - WSW 0,0
26.10.2020 07:00:00 8,2 6,5 8 4 - - SSW 0,0
26.10.2020 06:00:00 8,3 6,3 9 5 - - WSW 0,0
26.10.2020 05:00:00 8,6 6,7 21 11 - - WSW 0,0
26.10.2020 04:00:00 8,2 6,2 15 8 - - SW 0,0
26.10.2020 03:00:00 8,3 6,2 11 6 - - SW 0,0
26.10.2020 02:00:00 7,7 6,3 8 4 - - SW 0,0
26.10.2020 01:00:00 8,1 6,3 9 5 - - WSW 0,0
26.10.2020 00:00:00 8,5 6,6 13 7 - - SW 0,0
25.10.2020 23:00:00 8,8 6,8 11 6 - - SW 0,0
25.10.2020 22:00:00 9,5 7,3 13 7 - - WSW 0,0
25.10.2020 21:00:00 10,0 7,6 8 4 - - SW 0,0
25.10.2020 20:00:00 10,4 8,0 8 4 - - SSW 0,0
25.10.2020 19:00:00 11,1 7,3 15 8 - - SSW 0,0
25.10.2020 18:00:00 11,2 6,8 13 7 - - SSW 0,0
25.10.2020 17:00:00 11,6 7,1 15 8 - - WSW 0,0
25.10.2020 16:00:00 12,7 8,1 22 12 - - SW 0,0
25.10.2020 15:00:00 12,9 7,8 16 9 - - SSW 0,0
25.10.2020 14:00:00 12,8 8,9 15 8 - - SSW 0,0
25.10.2020 13:00:00 11,7 9,2 11 6 - - SW 0,0
25.10.2020 12:00:00 9,7 7,9 13 7 - - SSW 0,0
25.10.2020 11:00:00 11,9 9,4 4 2 - - SSW 0,0
25.10.2020 10:00:00 9,2 7,6 11 6 - - SSW 0,0
25.10.2020 09:00:00 9,2 7,2 24 13 46 25 WSW 0,0
25.10.2020 08:00:00 10,5 8,0 9 5 - - SSW 0,0
25.10.2020 07:00:00 9,5 7,4 5 3 - - WSW 0,0
25.10.2020 06:00:00 10,5 7,5 8 4 - - WSW 0,0
25.10.2020 05:00:00 9,9 7,7 5 3 - - SSW 0,0
25.10.2020 04:00:00 9,7 7,4 11 6 - - SW 0,0
25.10.2020 03:00:00 10,8 8,0 21 11 - - SSW 0,0
25.10.2020 02:00:00 9,9 8,1 13 7 - - SW 0,0
25.10.2020 01:00:00 11,0 8,8 22 12 - - WSW 0,0
25.10.2020 00:00:00 - - - - - - - -
24.10.2020 23:00:00 12,1 9,5 44 24 61 33 WSW 0,0
24.10.2020 22:00:00 12,5 11,1 29 16 48 26 SSW 0,0
24.10.2020 21:00:00 11,5 10,4 22 12 61 33 SSW 0,0
24.10.2020 20:00:00 13,3 12,6 34 18 52 28 SW 0,0
24.10.2020 19:00:00 13,9 12,7 37 20 57 31 SW 0,0
24.10.2020 18:00:00 14,1 12,9 39 21 85 46 SW 0,0
24.10.2020 17:00:00 15,1 14,2 39 21 72 39 SSW 0,0
24.10.2020 16:00:00 15,0 13,6 34 18 61 33 SSW 0,0
24.10.2020 15:00:00 15,1 13,8 29 16 67 36 SSW 0,0
24.10.2020 14:00:00 15,4 13,6 35 19 70 38 SSW 0,0
24.10.2020 13:00:00 14,4 13,8 34 18 57 31 S 0,0
24.10.2020 12:00:00 14,0 13,3 31 17 57 31 S -
24.10.2020 11:00:00 14,1 12,6 28 15 59 32 SSW 0,0
24.10.2020 10:00:00 14,6 11,9 31 17 55 30 SSW 0,0
24.10.2020 09:00:00 14,2 11,4 34 18 55 30 SSW 0,0
24.10.2020 08:00:00 13,4 12,0 31 17 61 33 SSW 0,0
24.10.2020 07:00:00 13,4 11,0 29 16 55 30 S 0,0
24.10.2020 06:00:00 13,1 10,1 29 16 52 28 SSW 0,0
24.10.2020 05:00:00 13,2 8,9 24 13 - - SSW 0,0
24.10.2020 04:00:00 11,9 7,7 16 9 - - SW 0,0
24.10.2020 03:00:00 11,9 8,9 11 6 - - SW 0,0
24.10.2020 02:00:00 11,6 9,0 11 6 - - SSW 0,0
24.10.2020 01:00:00 11,6 8,2 13 7 - - SSE 0,0
24.10.2020 00:00:00 10,6 7,1 4 2 - - S 0,0
23.10.2020 23:00:00 9,6 7,6 4 2 - - S 0,0
23.10.2020 22:00:00 9,1 7,9 4 2 - - W 0,0
23.10.2020 21:00:00 9,5 8,2 5 3 - - W 0,0
23.10.2020 20:00:00 10,3 8,8 8 4 - - WSW 0,0
23.10.2020 19:00:00 10,8 9,0 15 8 - - WSW 0,0
23.10.2020 18:00:00 11,5 9,5 13 7 - - WSW 0,0
23.10.2020 17:00:00 12,1 9,5 13 7 - - WSW 0,0
23.10.2020 16:00:00 14,1 11,1 18 10 - - WSW 0,0
23.10.2020 15:00:00 14,1 10,7 22 12 - - WSW 0,0
23.10.2020 14:00:00 14,3 10,3 29 16 - - WSW 0,0
23.10.2020 13:00:00 14,9 10,4 34 18 48 26 WSW 0,0
23.10.2020 12:00:00 14,3 11,3 35 19 48 26 WSW 0,0
23.10.2020 11:00:00 14,5 12,4 26 14 48 26 WSW 0,0
23.10.2020 10:00:00 13,7 12,1 28 15 48 26 SW 0,0
23.10.2020 09:00:00 13,8 12,4 18 10 - - SSW 0,0
23.10.2020 08:00:00 13,6 11,8 11 6 - - S 0,0
23.10.2020 07:00:00 13,2 11,5 13 7 - - SSW 0,0
23.10.2020 06:00:00 12,9 11,5 13 7 - - SSW 0,0
23.10.2020 05:00:00 13,0 11,6 15 8 - - SSW 0,0
23.10.2020 04:00:00 13,3 12,4 16 9 - - SSW 0,0
23.10.2020 03:00:00 13,3 12,9 13 7 - - SE 0,0
23.10.2020 02:00:00 12,4 11,9 11 6 - - SE 0,0
23.10.2020 01:00:00 12,8 12,2 15 8 - - SE 0,0
23.10.2020 00:00:00 13,3 12,3 9 5 - - S 0,0
22.10.2020 23:00:00 12,7 11,8 8 4 - - S 0,0
22.10.2020 22:00:00 12,6 11,7 5 3 - - S 0,0
22.10.2020 21:00:00 12,5 11,3 5 3 - - SSW 0,0
22.10.2020 20:00:00 12,8 10,9 9 5 - - SSW 0,0
22.10.2020 19:00:00 13,2 11,3 9 5 - - SSW 0,0
22.10.2020 18:00:00 13,7 11,4 9 5 - - SSW 0,0
22.10.2020 17:00:00 14,2 11,1 15 8 - - SSW 0,0
22.10.2020 16:00:00 15,6 11,2 21 11 - - SW 0,0
22.10.2020 15:00:00 15,7 10,9 16 9 - - WSW 0,0
22.10.2020 14:00:00 16,2 10,7 28 15 - - SW 0,0
22.10.2020 13:00:00 16,6 10,7 26 14 - - SW 0,0
22.10.2020 12:00:00 15,0 10,8 21 11 - - SW 0,0
22.10.2020 11:00:00 14,9 10,7 13 7 - - WSW 0,0
22.10.2020 10:00:00 14,8 11,6 15 8 - - WSW 0,0
22.10.2020 09:00:00 14,3 11,3 15 8 - - WSW 0,0
22.10.2020 08:00:00 13,6 11,2 18 10 - - SSW 0,0
22.10.2020 07:00:00 13,6 10,9 21 11 - - SW 0,0
22.10.2020 06:00:00 13,5 10,8 18 10 - - SW 0,0
22.10.2020 05:00:00 13,4 10,6 22 12 - - SW 0,0
22.10.2020 04:00:00 13,4 11,0 21 11 - - SW 0,0
22.10.2020 03:00:00 13,5 11,2 22 12 - - SW 0,0
22.10.2020 02:00:00 13,4 11,2 18 10 - - SW 0,0
22.10.2020 01:00:00 13,6 10,9 29 16 - - SW 0,0
22.10.2020 00:00:00 13,4 10,9 21 11 46 25 SW 0,0
21.10.2020 23:00:00 14,0 11,1 35 19 50 27 SW 0,0
21.10.2020 22:00:00 14,0 11,1 29 16 48 26 SW 0,0
21.10.2020 21:00:00 13,7 10,7 26 14 55 30 SW 0,0
21.10.2020 20:00:00 14,4 12,2 31 17 50 27 SW 0,0
21.10.2020 19:00:00 14,7 13,5 26 14 - - SW 0,0
21.10.2020 18:00:00 14,2 12,9 21 11 - - SW 0,0

tt = Température de l'air
td = dewpoint
ff = Vitesse du vent
fx = gusts
dd = Direction du vent
rr = Quantités de précipitations

stations d'obs. à proximité